createdAt,value
2022-09-24T00:00:52.981Z,70.01
2022-09-24T00:01:53.026Z,69.90
2022-09-24T00:02:53.039Z,70.07
2022-09-24T00:03:52.945Z,70.21
2022-09-24T00:04:52.946Z,70.21
2022-09-24T00:05:52.921Z,70.21
2022-09-24T00:06:52.924Z,70.28
2022-09-24T00:07:52.900Z,70.21
2022-09-24T00:08:52.890Z,70.01
2022-09-24T00:09:52.882Z,70.21
2022-09-24T00:10:52.869Z,70.31
2022-09-24T00:11:52.867Z,70.01
2022-09-24T00:12:52.848Z,70.31
2022-09-24T00:13:52.836Z,70.21
2022-09-24T00:14:52.842Z,70.01
2022-09-24T00:15:52.888Z,70.62
2022-09-24T00:16:52.818Z,70.72
2022-09-24T00:17:52.793Z,70.41
2022-09-24T00:18:52.782Z,70.72
2022-09-24T00:19:52.775Z,70.72
2022-09-24T00:20:52.759Z,70.62
2022-09-24T00:21:52.759Z,70.31
2022-09-24T00:22:52.738Z,69.90
2022-09-24T00:23:52.724Z,69.80
2022-09-24T00:24:52.718Z,70.01
2022-09-24T00:25:52.705Z,69.90
2022-09-24T00:26:52.706Z,70.01
2022-09-24T00:27:52.681Z,70.72
2022-09-24T00:28:52.671Z,70.51
2022-09-24T00:29:52.660Z,70.72
2022-09-24T00:30:52.673Z,70.62
2022-09-24T00:31:52.770Z,70.51
2022-09-24T00:32:52.628Z,70.31
2022-09-24T00:33:52.629Z,70.62
2022-09-24T00:34:52.605Z,70.31
2022-09-24T00:35:52.596Z,70.31
2022-09-24T00:36:52.591Z,70.55
2022-09-24T00:37:52.576Z,70.45
2022-09-24T00:38:52.566Z,70.04
2022-09-24T00:39:52.552Z,70.65
2022-09-24T00:40:52.582Z,70.55
2022-09-24T00:41:52.541Z,70.45
2022-09-24T00:42:52.518Z,70.55
2022-09-24T00:43:52.509Z,70.65
2022-09-24T00:44:52.499Z,70.55
2022-09-24T00:45:52.490Z,71.60
2022-09-24T00:46:52.577Z,71.43
2022-09-24T00:47:52.464Z,71.94
2022-09-24T00:48:52.453Z,72.04
2022-09-24T00:49:52.440Z,72.24
2022-09-24T00:50:52.442Z,72.14
2022-09-24T00:51:52.421Z,72.52
2022-09-24T00:52:52.413Z,72.62
2022-09-24T00:53:52.401Z,71.84
2022-09-24T00:54:52.389Z,72.11
2022-09-24T00:55:52.393Z,72.11
2022-09-24T00:56:52.364Z,72.11
2022-09-24T00:57:52.355Z,72.01
2022-09-24T00:58:52.345Z,71.91
2022-09-24T00:59:52.337Z,71.70
2022-09-24T01:00:52.359Z,72.01
2022-09-24T01:01:52.334Z,71.67
2022-09-24T01:02:52.328Z,71.16
2022-09-24T01:03:52.290Z,71.26
2022-09-24T01:04:56.264Z,70.86
2022-09-24T01:05:52.278Z,72.28
2022-09-24T01:06:52.281Z,70.89
2022-09-24T01:07:52.244Z,71.09
2022-09-24T01:08:52.233Z,71.67
2022-09-24T01:09:52.223Z,70.99
2022-09-24T01:10:52.225Z,72.28
2022-09-24T01:11:52.201Z,70.95
2022-09-24T01:12:52.192Z,71.26
2022-09-24T01:13:52.182Z,71.56
2022-09-24T01:14:52.179Z,71.77
2022-09-24T01:15:52.203Z,71.19
2022-09-24T01:16:52.147Z,71.36
2022-09-24T01:17:52.135Z,71.09
2022-09-24T01:18:52.142Z,71.09
2022-09-24T01:19:52.127Z,71.30
2022-09-24T01:20:52.101Z,71.16
2022-09-24T01:21:52.092Z,70.99
2022-09-24T01:22:52.084Z,71.39
2022-09-24T01:23:52.074Z,71.70
2022-09-24T01:24:52.070Z,71.30
2022-09-24T01:25:52.048Z,71.39
2022-09-24T01:26:52.035Z,71.91
2022-09-24T01:27:52.027Z,71.70
2022-09-24T01:28:52.014Z,71.80
2022-09-24T01:29:52.016Z,71.60
2022-09-24T01:30:51.995Z,71.60
2022-09-24T01:31:52.092Z,72.21
2022-09-24T01:32:52.470Z,72.11
2022-09-24T01:33:51.961Z,71.80
2022-09-24T01:34:51.979Z,71.91
2022-09-24T01:35:51.939Z,71.91
2022-09-24T01:36:51.928Z,71.91
2022-09-24T01:37:51.917Z,72.41
2022-09-24T01:38:51.906Z,71.91
2022-09-24T01:39:51.909Z,72.52
2022-09-24T01:40:52.031Z,72.52
2022-09-24T01:41:51.873Z,71.70
2022-09-24T01:42:51.867Z,72.31
2022-09-24T01:43:51.850Z,71.91
2022-09-24T01:44:51.847Z,72.52
2022-09-24T01:45:51.830Z,72.41
2022-09-24T01:46:51.889Z,72.41
2022-09-24T01:47:51.812Z,72.52
2022-09-24T01:48:51.796Z,72.31
2022-09-24T01:49:51.796Z,72.41
2022-09-24T01:50:51.789Z,71.91
2022-09-24T01:51:51.771Z,72.31
2022-09-24T01:52:51.750Z,72.21
2022-09-24T01:53:51.743Z,72.11
2022-09-24T01:54:51.858Z,72.31
2022-09-24T01:55:51.720Z,71.91
2022-09-24T01:56:51.710Z,72.31
2022-09-24T01:57:51.701Z,72.21
2022-09-24T01:58:51.687Z,71.91
2022-09-24T01:59:51.691Z,72.08
2022-09-24T02:00:51.698Z,72.41
2022-09-24T02:01:51.722Z,72.08
2022-09-24T02:02:51.643Z,72.52
2022-09-24T02:03:51.633Z,72.62
2022-09-24T02:04:51.631Z,72.52
2022-09-24T02:05:51.611Z,72.52
2022-09-24T02:06:51.617Z,72.41
2022-09-24T02:07:51.588Z,72.01
2022-09-24T02:08:51.584Z,72.52
2022-09-24T02:09:51.634Z,72.92
2022-09-24T02:10:51.554Z,72.82
2022-09-24T02:11:51.545Z,72.92
2022-09-24T02:12:51.533Z,73.23
2022-09-24T02:13:51.535Z,73.02
2022-09-24T02:14:51.524Z,72.62
2022-09-24T02:15:51.558Z,72.41
2022-09-24T02:16:51.489Z,72.82
2022-09-24T02:17:51.480Z,72.41
2022-09-24T02:18:51.469Z,72.92
2022-09-24T02:19:51.508Z,72.72
2022-09-24T02:20:51.468Z,72.92
2022-09-24T02:21:51.436Z,73.02
2022-09-24T02:22:51.473Z,73.43
2022-09-24T02:23:51.417Z,72.92
2022-09-24T02:24:51.413Z,73.23
2022-09-24T02:25:51.486Z,73.43
2022-09-24T02:26:51.380Z,73.54
2022-09-24T02:27:51.371Z,73.26
2022-09-24T02:28:51.357Z,73.67
2022-09-24T02:29:51.357Z,73.97
2022-09-24T02:30:51.337Z,73.88
2022-09-24T02:31:51.384Z,74.42
2022-09-24T02:32:51.319Z,74.62
2022-09-24T02:33:51.310Z,74.83
2022-09-24T02:34:51.305Z,74.79
2022-09-24T02:35:51.283Z,74.93
2022-09-24T02:36:51.335Z,74.93
2022-09-24T02:37:51.260Z,75.23
2022-09-24T02:38:51.266Z,74.93
2022-09-24T02:39:51.253Z,74.93
2022-09-24T02:40:51.356Z,75.13
2022-09-24T02:41:51.219Z,75.20
2022-09-24T02:42:51.218Z,75.34
2022-09-24T02:43:51.195Z,74.93
2022-09-24T02:44:51.193Z,74.93
2022-09-24T02:45:51.175Z,74.93
2022-09-24T02:46:51.276Z,74.79
2022-09-24T02:47:51.153Z,74.69
2022-09-24T02:48:51.139Z,74.69
2022-09-24T02:49:51.142Z,74.90
2022-09-24T02:50:51.117Z,74.69
2022-09-24T02:51:51.109Z,74.79
2022-09-24T02:52:51.095Z,74.73
2022-09-24T02:53:51.088Z,74.69
2022-09-24T02:54:51.100Z,74.79
2022-09-24T02:55:51.064Z,74.99
2022-09-24T02:56:51.050Z,75.10
2022-09-24T02:57:51.043Z,74.90
2022-09-24T02:58:51.029Z,74.90
2022-09-24T02:59:51.031Z,75.10
2022-09-24T03:00:51.008Z,74.99
2022-09-24T03:01:51.114Z,75.10
2022-09-24T03:02:51.092Z,75.03
2022-09-24T03:03:50.975Z,75.44
2022-09-24T03:04:50.977Z,75.44
2022-09-24T03:05:50.955Z,75.10
2022-09-24T03:06:50.942Z,75.20
2022-09-24T03:07:50.934Z,74.99
2022-09-24T03:08:50.938Z,74.90
2022-09-24T03:09:50.923Z,74.49
2022-09-24T03:10:50.999Z,74.58
2022-09-24T03:11:50.887Z,74.58
2022-09-24T03:12:50.878Z,74.93
2022-09-24T03:13:50.868Z,75.03
2022-09-24T03:14:50.865Z,75.16
2022-09-24T03:15:50.967Z,75.44
2022-09-24T03:16:50.832Z,75.23
2022-09-24T03:17:50.822Z,75.54
2022-09-24T03:18:50.827Z,75.34
2022-09-24T03:19:50.803Z,75.40
2022-09-24T03:20:50.797Z,75.20
2022-09-24T03:21:50.795Z,74.69
2022-09-24T03:22:50.765Z,74.99
2022-09-24T03:23:50.761Z,74.79
2022-09-24T03:24:50.757Z,74.69
2022-09-24T03:25:50.741Z,74.58
2022-09-24T03:26:50.743Z,74.55
2022-09-24T03:27:50.726Z,74.49
2022-09-24T03:28:50.771Z,74.69
2022-09-24T03:29:50.740Z,74.76
2022-09-24T03:30:50.687Z,74.69
2022-09-24T03:31:50.741Z,74.58
2022-09-24T03:32:50.663Z,74.79
2022-09-24T03:33:50.648Z,74.90
2022-09-24T03:34:50.657Z,74.69
2022-09-24T03:35:50.625Z,75.10
2022-09-24T03:36:50.613Z,75.06
2022-09-24T03:37:50.604Z,74.65
2022-09-24T03:38:50.593Z,74.76
2022-09-24T03:39:50.611Z,74.65
2022-09-24T03:40:50.651Z,74.55
2022-09-24T03:41:50.570Z,74.28
2022-09-24T03:42:50.575Z,74.65
2022-09-24T03:43:50.565Z,74.69
2022-09-24T03:44:50.538Z,74.69
2022-09-24T03:45:50.517Z,74.99
2022-09-24T03:46:50.571Z,74.90
2022-09-24T03:47:50.494Z,74.79
2022-09-24T03:48:50.483Z,74.99
2022-09-24T03:49:50.484Z,75.13
2022-09-24T03:50:50.463Z,75.71
2022-09-24T03:51:50.451Z,75.92
2022-09-24T03:52:50.438Z,75.71
2022-09-24T03:53:50.429Z,76.15
2022-09-24T03:54:50.425Z,76.15
2022-09-24T03:55:50.409Z,76.46
2022-09-24T03:56:50.394Z,76.66
2022-09-24T03:57:50.388Z,76.59
2022-09-24T03:58:50.396Z,76.59
2022-09-24T03:59:50.376Z,77.25
2022-09-24T04:00:50.350Z,77.55
2022-09-24T04:01:50.368Z,78.27
2022-09-24T04:02:50.405Z,77.96
2022-09-24T04:03:50.381Z,77.55
2022-09-24T04:04:50.319Z,78.06
2022-09-24T04:05:50.299Z,78.71
2022-09-24T04:06:50.285Z,78.30
2022-09-24T04:07:50.277Z,78.91
2022-09-24T04:08:50.278Z,78.91
2022-09-24T04:09:50.258Z,78.71
2022-09-24T04:10:50.241Z,79.02
2022-09-24T04:11:50.234Z,78.91
2022-09-24T04:12:50.219Z,79.02
2022-09-24T04:13:50.221Z,79.02
2022-09-24T04:14:50.215Z,78.47
2022-09-24T04:15:50.376Z,78.77
2022-09-24T04:16:50.176Z,78.27
2022-09-24T04:17:50.166Z,78.71
2022-09-24T04:18:50.167Z,78.77
2022-09-24T04:19:50.146Z,78.67
2022-09-24T04:20:50.132Z,78.16
2022-09-24T04:21:50.126Z,78.57
2022-09-24T04:22:50.113Z,78.50
2022-09-24T04:23:50.119Z,78.37
2022-09-24T04:24:50.089Z,78.37
2022-09-24T04:25:50.084Z,78.37
2022-09-24T04:26:50.069Z,78.57
2022-09-24T04:27:50.059Z,78.27
2022-09-24T04:28:50.058Z,78.16
2022-09-24T04:29:50.039Z,78.06
2022-09-24T04:30:50.148Z,78.00
2022-09-24T04:31:50.145Z,78.06
2022-09-24T04:32:50.003Z,78.27
2022-09-24T04:33:50.004Z,78.06
2022-09-24T04:34:49.983Z,78.06
2022-09-24T04:35:49.973Z,77.14
2022-09-24T04:36:49.967Z,77.79
2022-09-24T04:37:49.954Z,78.09
2022-09-24T04:38:49.950Z,78.34
2022-09-24T04:39:49.933Z,78.95
2022-09-24T04:40:50.031Z,78.95
2022-09-24T04:41:49.921Z,78.75
2022-09-24T04:42:49.898Z,79.05
2022-09-24T04:43:49.914Z,79.25
2022-09-24T04:44:53.986Z,79.36
2022-09-24T04:45:50.888Z,78.95
2022-09-24T04:46:49.944Z,79.25
2022-09-24T04:47:49.843Z,79.25
2022-09-24T04:48:49.844Z,78.81
2022-09-24T04:49:49.824Z,78.81
2022-09-24T04:50:49.811Z,78.91
2022-09-24T04:51:49.800Z,78.37
2022-09-24T04:52:49.789Z,78.00
2022-09-24T04:53:49.788Z,78.20
2022-09-24T04:54:49.768Z,78.20
2022-09-24T04:55:49.757Z,77.96
2022-09-24T04:56:49.751Z,78.06
2022-09-24T04:57:49.753Z,77.34
2022-09-24T04:58:49.728Z,77.45
2022-09-24T04:59:49.713Z,77.65
2022-09-24T05:00:49.704Z,77.45
2022-09-24T05:01:49.873Z,77.45
2022-09-24T05:02:49.778Z,77.21
2022-09-24T05:03:49.679Z,77.65
2022-09-24T05:04:49.660Z,77.14
2022-09-24T05:05:49.650Z,76.39
2022-09-24T05:06:49.638Z,76.63
2022-09-24T05:07:49.626Z,77.21
2022-09-24T05:08:49.627Z,77.31
2022-09-24T05:09:49.605Z,77.27
2022-09-24T05:10:49.601Z,76.80
2022-09-24T05:11:49.584Z,77.11
2022-09-24T05:12:49.575Z,76.59
2022-09-24T05:13:49.639Z,76.70
2022-09-24T05:14:49.552Z,76.70
2022-09-24T05:15:49.601Z,76.66
2022-09-24T05:16:49.532Z,76.70
2022-09-24T05:17:49.529Z,76.56
2022-09-24T05:18:49.525Z,76.19
2022-09-24T05:19:49.498Z,76.39
2022-09-24T05:20:49.513Z,76.59
2022-09-24T05:21:49.475Z,76.90
2022-09-24T05:22:49.602Z,76.59
2022-09-24T05:23:49.453Z,77.00
2022-09-24T05:24:49.444Z,77.07
2022-09-24T05:25:49.431Z,77.31
2022-09-24T05:26:49.422Z,76.80
2022-09-24T05:27:49.423Z,76.56
2022-09-24T05:28:49.401Z,76.87
2022-09-24T05:29:49.389Z,76.80
2022-09-24T05:30:49.482Z,76.50
2022-09-24T05:31:49.391Z,77.41
2022-09-24T05:32:49.370Z,77.65
2022-09-24T05:33:49.376Z,77.96
2022-09-24T05:34:49.442Z,78.77
2022-09-24T05:35:49.324Z,78.27
2022-09-24T05:36:49.314Z,78.88
2022-09-24T05:37:49.313Z,78.91
2022-09-24T05:38:49.300Z,78.71
2022-09-24T05:39:49.287Z,79.28
2022-09-24T05:40:49.387Z,79.08
2022-09-24T05:41:49.264Z,79.28
2022-09-24T05:42:49.270Z,79.08
2022-09-24T05:43:49.239Z,79.28
2022-09-24T05:44:52.253Z,79.14
2022-09-24T05:45:49.236Z,79.14
2022-09-24T05:46:49.294Z,78.84
2022-09-24T05:47:49.208Z,78.74
2022-09-24T05:48:49.184Z,78.74
2022-09-24T05:49:49.173Z,78.23
2022-09-24T05:50:49.182Z,78.12
2022-09-24T05:51:49.152Z,78.50
2022-09-24T05:52:49.161Z,78.12
2022-09-24T05:53:49.131Z,77.98
2022-09-24T05:54:49.119Z,77.98
2022-09-24T05:55:49.108Z,77.27
2022-09-24T05:56:49.098Z,77.78
2022-09-24T05:57:49.110Z,77.78
2022-09-24T05:58:49.094Z,77.27
2022-09-24T05:59:49.064Z,76.83
2022-09-24T06:00:49.060Z,77.27
2022-09-24T06:01:49.124Z,76.53
2022-09-24T06:02:49.082Z,76.87
2022-09-24T06:03:49.021Z,77.14
2022-09-24T06:04:49.011Z,76.83
2022-09-24T06:05:49.005Z,76.42
2022-09-24T06:06:49.087Z,77.03
2022-09-24T06:07:48.992Z,76.42
2022-09-24T06:08:48.968Z,76.93
2022-09-24T06:09:48.955Z,77.24
2022-09-24T06:10:48.952Z,76.73
2022-09-24T06:11:48.932Z,76.83
2022-09-24T06:12:48.937Z,77.24
2022-09-24T06:13:48.912Z,76.90
2022-09-24T06:14:48.904Z,76.39
2022-09-24T06:15:48.945Z,76.59
2022-09-24T06:16:48.883Z,76.90
2022-09-24T06:17:48.890Z,76.69
2022-09-24T06:18:48.860Z,76.69
2022-09-24T06:19:48.853Z,76.79
2022-09-24T06:20:48.836Z,76.49
2022-09-24T06:21:48.823Z,76.65
2022-09-24T06:22:48.841Z,76.56
2022-09-24T06:23:48.804Z,76.25
2022-09-24T06:24:48.796Z,75.74
2022-09-24T06:25:48.779Z,75.84
2022-09-24T06:26:48.772Z,75.60
2022-09-24T06:27:48.771Z,75.84
2022-09-24T06:28:48.752Z,75.43
2022-09-24T06:29:48.737Z,74.79
2022-09-24T06:30:48.728Z,74.79
2022-09-24T06:31:48.808Z,74.48
2022-09-24T06:32:48.727Z,74.18
2022-09-24T06:33:48.692Z,74.58
2022-09-24T06:34:48.682Z,74.48
2022-09-24T06:35:48.673Z,74.18
2022-09-24T06:36:48.675Z,74.18
2022-09-24T06:37:48.652Z,73.97
2022-09-24T06:38:48.660Z,74.18
2022-09-24T06:39:48.628Z,74.08
2022-09-24T06:40:48.693Z,73.77
2022-09-24T06:41:48.618Z,73.74
2022-09-24T06:42:48.595Z,73.16
2022-09-24T06:43:48.583Z,73.36
2022-09-24T06:44:48.574Z,73.77
2022-09-24T06:45:48.561Z,73.77
2022-09-24T06:46:48.618Z,73.77
2022-09-24T06:47:48.552Z,73.97
2022-09-24T06:48:48.531Z,73.87
2022-09-24T06:49:48.517Z,74.11
2022-09-24T06:50:48.508Z,74.11
2022-09-24T06:51:48.507Z,74.32
2022-09-24T06:52:48.498Z,74.21
2022-09-24T06:53:48.473Z,74.41
2022-09-24T06:54:48.487Z,74.62
2022-09-24T06:55:48.453Z,74.82
2022-09-24T06:56:48.456Z,74.69
2022-09-24T06:57:48.446Z,74.48
2022-09-24T06:58:48.428Z,74.48
2022-09-24T06:59:48.410Z,74.28
2022-09-24T07:00:48.485Z,74.15
2022-09-24T07:01:48.417Z,74.04
2022-09-24T07:02:48.394Z,74.24
2022-09-24T07:03:48.365Z,74.45
2022-09-24T07:04:48.357Z,74.35
2022-09-24T07:05:48.344Z,73.74
2022-09-24T07:06:48.336Z,73.84
2022-09-24T07:07:48.336Z,74.15
2022-09-24T07:08:48.313Z,73.94
2022-09-24T07:09:48.300Z,74.15
2022-09-24T07:10:48.392Z,74.04
2022-09-24T07:11:48.279Z,74.45
2022-09-24T07:12:48.280Z,74.35
2022-09-24T07:13:48.259Z,74.52
2022-09-24T07:14:48.252Z,74.04
2022-09-24T07:15:48.279Z,74.65
2022-09-24T07:16:48.226Z,74.65
2022-09-24T07:17:48.225Z,74.96
2022-09-24T07:18:48.202Z,74.45
2022-09-24T07:19:48.200Z,74.65
2022-09-24T07:20:48.182Z,74.65
2022-09-24T07:21:48.181Z,73.23
2022-09-24T07:22:48.184Z,73.23
2022-09-24T07:23:48.185Z,72.99
2022-09-24T07:24:48.139Z,72.41
2022-09-24T07:25:48.144Z,71.97
2022-09-24T07:26:48.234Z,72.69
2022-09-24T07:27:48.109Z,72.99
2022-09-24T07:28:48.095Z,72.69
2022-09-24T07:29:48.082Z,72.85
2022-09-24T07:30:48.223Z,72.48
2022-09-24T07:31:48.146Z,72.45
2022-09-24T07:32:48.052Z,71.94
2022-09-24T07:33:48.039Z,72.04
2022-09-24T07:34:48.031Z,71.94
2022-09-24T07:35:48.017Z,72.14
2022-09-24T07:36:48.011Z,71.73
2022-09-24T07:37:48.050Z,71.73
2022-09-24T07:38:48.000Z,71.91
2022-09-24T07:39:47.977Z,72.01
2022-09-24T07:40:48.059Z,72.41
2022-09-24T07:41:47.955Z,71.91
2022-09-24T07:42:47.969Z,72.01
2022-09-24T07:43:47.933Z,72.31
2022-09-24T07:44:47.927Z,72.31
2022-09-24T07:45:47.908Z,72.01
2022-09-24T07:46:47.944Z,72.41
2022-09-24T07:47:47.896Z,72.69
2022-09-24T07:48:47.878Z,72.72
2022-09-24T07:49:47.867Z,72.41
2022-09-24T07:50:47.856Z,72.52
2022-09-24T07:51:47.843Z,72.31
2022-09-24T07:52:47.847Z,72.41
2022-09-24T07:53:47.829Z,72.62
2022-09-24T07:54:47.815Z,72.62
2022-09-24T07:55:47.800Z,72.62
2022-09-24T07:56:47.792Z,72.31
2022-09-24T07:57:47.795Z,72.01
2022-09-24T07:58:47.786Z,72.31
2022-09-24T07:59:47.756Z,72.21
2022-09-24T08:00:47.748Z,72.62
2022-09-24T08:01:47.823Z,72.65
2022-09-24T08:02:47.748Z,72.72
2022-09-24T08:03:47.792Z,73.16
2022-09-24T08:04:47.706Z,72.72
2022-09-24T08:05:47.693Z,72.82
2022-09-24T08:06:47.910Z,72.52
2022-09-24T08:07:47.682Z,72.31
2022-09-24T08:08:47.664Z,72.31
2022-09-24T08:09:47.650Z,71.67
2022-09-24T08:10:47.640Z,71.70
2022-09-24T08:11:47.630Z,72.21
2022-09-24T08:12:47.630Z,72.72
2022-09-24T08:13:47.611Z,72.92
2022-09-24T08:14:47.617Z,72.62
2022-09-24T08:15:47.641Z,72.72
2022-09-24T08:16:47.576Z,71.91
2022-09-24T08:17:47.577Z,72.62
2022-09-24T08:18:47.559Z,72.72
2022-09-24T08:19:47.542Z,72.72
2022-09-24T08:20:47.536Z,72.72
2022-09-24T08:21:47.521Z,72.62
2022-09-24T08:22:47.526Z,72.78
2022-09-24T08:23:47.499Z,72.89
2022-09-24T08:24:47.490Z,72.69
2022-09-24T08:25:47.477Z,72.99
2022-09-24T08:26:47.470Z,72.99
2022-09-24T08:27:47.470Z,72.58
2022-09-24T08:28:47.446Z,72.28
2022-09-24T08:29:47.447Z,71.64
2022-09-24T08:30:47.515Z,71.88
2022-09-24T08:31:47.413Z,71.16
2022-09-24T08:32:47.414Z,70.11
2022-09-24T08:33:47.390Z,70.52
2022-09-24T08:34:47.380Z,69.71
2022-09-24T08:35:47.369Z,69.71
2022-09-24T08:36:47.364Z,69.98
2022-09-24T08:37:47.358Z,69.78
2022-09-24T08:38:47.337Z,69.57
2022-09-24T08:39:47.327Z,68.87
2022-09-24T08:40:47.473Z,67.95
2022-09-24T08:41:47.305Z,69.07
2022-09-24T08:42:47.307Z,68.26
2022-09-24T08:43:47.294Z,67.85
2022-09-24T08:44:47.274Z,68.35
2022-09-24T08:45:47.261Z,68.73
2022-09-24T08:46:47.301Z,69.13
2022-09-24T08:47:47.248Z,69.13
2022-09-24T08:48:47.228Z,68.83
2022-09-24T08:49:47.225Z,68.80
2022-09-24T08:50:47.210Z,67.76
2022-09-24T08:51:47.193Z,67.76
2022-09-24T08:52:47.257Z,68.84
2022-09-24T08:53:47.171Z,67.93
2022-09-24T08:54:47.162Z,66.58
2022-09-24T08:55:47.149Z,67.11
2022-09-24T08:56:47.141Z,67.18
2022-09-24T08:57:47.153Z,66.71
2022-09-24T08:58:47.117Z,66.58
2022-09-24T08:59:47.108Z,66.27
2022-09-24T09:00:47.101Z,66.58
2022-09-24T09:01:47.217Z,66.38
2022-09-24T09:02:47.160Z,65.59
2022-09-24T09:03:47.063Z,66.00
2022-09-24T09:04:47.053Z,66.17
2022-09-24T09:05:49.502Z,66.64
2022-09-24T09:06:47.032Z,66.78
2022-09-24T09:07:47.030Z,67.29
2022-09-24T09:09:05.761Z,67.62
2022-09-24T09:09:47.999Z,67.72
2022-09-24T09:10:46.986Z,67.82
2022-09-24T09:11:46.977Z,68.63
2022-09-24T09:12:46.976Z,68.73
2022-09-24T09:13:46.956Z,68.97
2022-09-24T09:14:46.944Z,69.48
2022-09-24T09:15:46.983Z,69.17
2022-09-24T09:16:46.921Z,69.27
2022-09-24T09:17:46.922Z,69.27
2022-09-24T09:18:47.004Z,68.97
2022-09-24T09:19:50.365Z,69.27
2022-09-24T09:20:47.877Z,69.14
2022-09-24T09:21:46.870Z,67.52
2022-09-24T09:22:46.865Z,67.82
2022-09-24T09:23:46.846Z,68.16
2022-09-24T09:24:46.837Z,68.53
2022-09-24T09:25:46.828Z,68.53
2022-09-24T09:26:46.812Z,68.84
2022-09-24T09:27:46.832Z,67.89
2022-09-24T09:28:46.807Z,67.99
2022-09-24T09:29:46.788Z,67.93
2022-09-24T09:30:46.924Z,67.62
2022-09-24T09:31:46.850Z,67.72
2022-09-24T09:32:46.757Z,68.13
2022-09-24T09:33:46.737Z,67.72
2022-09-24T09:34:46.828Z,67.93
2022-09-24T09:35:46.717Z,67.55
2022-09-24T09:36:46.717Z,67.22
2022-09-24T09:37:46.709Z,67.42
2022-09-24T09:38:46.685Z,67.82
2022-09-24T09:39:46.673Z,67.72
2022-09-24T09:40:46.797Z,67.22
2022-09-24T09:41:46.650Z,67.72
2022-09-24T09:42:46.652Z,67.62
2022-09-24T09:43:46.629Z,67.39
2022-09-24T09:44:46.617Z,67.22
2022-09-24T09:45:46.609Z,67.93
2022-09-24T09:46:46.749Z,67.93
2022-09-24T09:47:46.596Z,67.32
2022-09-24T09:48:46.574Z,67.11
2022-09-24T09:49:46.564Z,67.72
2022-09-24T09:50:46.574Z,67.85
2022-09-24T09:51:46.542Z,68.97
2022-09-24T09:52:46.559Z,68.84
2022-09-24T09:53:46.557Z,68.63
2022-09-24T09:54:46.509Z,67.82
2022-09-24T09:55:46.497Z,67.22
2022-09-24T09:56:46.522Z,68.02
2022-09-24T09:57:46.486Z,67.72
2022-09-24T09:58:46.475Z,68.23
2022-09-24T09:59:46.455Z,68.73
2022-09-24T10:00:46.453Z,67.72
2022-09-24T10:01:46.465Z,67.79
2022-09-24T10:02:46.578Z,67.99
2022-09-24T10:03:46.515Z,67.79
2022-09-24T10:04:46.405Z,67.39
2022-09-24T10:05:46.405Z,66.78
2022-09-24T10:06:46.414Z,67.25
2022-09-24T10:07:46.381Z,66.64
2022-09-24T10:08:46.356Z,66.64
2022-09-24T10:09:46.359Z,65.73
2022-09-24T10:10:46.343Z,65.53
2022-09-24T10:11:46.328Z,65.91
2022-09-24T10:12:46.407Z,66.21
2022-09-24T10:13:46.308Z,65.61
2022-09-24T10:14:46.289Z,65.64
2022-09-24T10:15:46.326Z,65.43
2022-09-24T10:16:46.327Z,65.53
2022-09-24T10:17:46.278Z,66.11
2022-09-24T10:18:46.252Z,66.14
2022-09-24T10:19:46.237Z,66.21
2022-09-24T10:20:46.228Z,65.10
2022-09-24T10:21:46.219Z,65.70
2022-09-24T10:22:46.316Z,65.50
2022-09-24T10:23:46.207Z,65.50
2022-09-24T10:24:46.182Z,66.21
2022-09-24T10:25:46.176Z,66.11
2022-09-24T10:26:46.162Z,65.70
2022-09-24T10:27:46.163Z,65.81
2022-09-24T10:28:46.141Z,65.91
2022-09-24T10:29:46.136Z,64.09
2022-09-24T10:30:46.116Z,64.79
2022-09-24T10:31:46.201Z,65.30
2022-09-24T10:32:46.147Z,65.30
2022-09-24T10:33:46.087Z,64.90
2022-09-24T10:34:46.074Z,65.30
2022-09-24T10:35:46.068Z,64.79
2022-09-24T10:36:46.051Z,65.40
2022-09-24T10:37:46.050Z,65.50
2022-09-24T10:38:46.107Z,65.61
2022-09-24T10:39:46.024Z,65.40
2022-09-24T10:40:46.083Z,64.83
2022-09-24T10:41:46.000Z,65.50
2022-09-24T10:42:46.000Z,65.33
2022-09-24T10:43:45.979Z,65.10
2022-09-24T10:44:50.616Z,65.10
2022-09-24T10:45:46.952Z,65.53
2022-09-24T10:46:45.990Z,64.79
2022-09-24T10:47:45.963Z,63.89
2022-09-24T10:48:45.920Z,64.59
2022-09-24T10:49:45.912Z,64.49
2022-09-24T10:50:45.900Z,64.79
2022-09-24T10:51:45.890Z,63.78
2022-09-24T10:52:45.889Z,64.59
2022-09-24T10:53:45.867Z,64.59
2022-09-24T10:54:45.959Z,64.19
2022-09-24T10:55:45.855Z,64.16
2022-09-24T10:56:46.726Z,64.46
2022-09-24T10:57:45.833Z,64.26
2022-09-24T10:58:45.820Z,63.76
2022-09-24T10:59:45.802Z,63.65
2022-09-24T11:00:45.794Z,64.16
2022-09-24T11:01:45.822Z,64.26
2022-09-24T11:02:45.839Z,64.53
2022-09-24T11:03:45.760Z,64.43
2022-09-24T11:04:45.746Z,64.64
2022-09-24T11:05:45.742Z,64.84
2022-09-24T11:06:45.727Z,64.94
2022-09-24T11:07:45.727Z,64.70
2022-09-24T11:08:45.702Z,65.41
2022-09-24T11:09:45.737Z,65.61
2022-09-24T11:10:45.700Z,65.71
2022-09-24T11:11:45.671Z,65.11
2022-09-24T11:12:45.678Z,64.40
2022-09-24T11:13:50.472Z,64.98
2022-09-24T11:14:46.643Z,64.47
2022-09-24T11:15:45.828Z,63.56
2022-09-24T11:16:45.623Z,63.53
2022-09-24T11:17:45.617Z,63.73
2022-09-24T11:18:45.597Z,63.36
2022-09-24T11:19:45.585Z,63.33
2022-09-24T11:20:45.579Z,63.93
2022-09-24T11:21:45.573Z,63.64
2022-09-24T11:22:45.563Z,63.03
2022-09-24T11:23:45.543Z,62.83
2022-09-24T11:24:45.530Z,63.23
2022-09-24T11:25:45.527Z,63.33
2022-09-24T11:26:45.610Z,63.00
2022-09-24T11:27:45.556Z,63.40
2022-09-24T11:28:45.487Z,62.90
2022-09-24T11:29:45.496Z,63.50
2022-09-24T11:30:45.467Z,61.89
2022-09-24T11:31:45.524Z,62.19
2022-09-24T11:32:45.454Z,62.57
2022-09-24T11:33:45.442Z,61.99
2022-09-24T11:34:45.423Z,59.55
2022-09-24T11:35:45.414Z,58.84
2022-09-24T11:36:45.405Z,58.74
2022-09-24T11:37:45.404Z,58.94
2022-09-24T11:38:45.378Z,60.15
2022-09-24T11:39:45.376Z,60.45
2022-09-24T11:40:45.469Z,60.48
2022-09-24T11:41:45.349Z,60.68
2022-09-24T11:42:45.445Z,60.88
2022-09-24T11:43:45.334Z,61.49
2022-09-24T11:44:45.316Z,61.49
2022-09-24T11:45:45.323Z,62.09
2022-09-24T11:46:45.376Z,62.90
2022-09-24T11:47:45.294Z,63.20
2022-09-24T11:48:45.270Z,62.73
2022-09-24T11:49:45.262Z,62.32
2022-09-24T11:50:47.851Z,60.28
2022-09-24T11:51:45.245Z,61.39
2022-09-24T11:52:45.244Z,61.99
2022-09-24T11:53:45.224Z,60.48
2022-09-24T11:54:45.221Z,60.38
2022-09-24T11:55:45.197Z,60.48
2022-09-24T11:56:45.184Z,61.69
2022-09-24T11:57:45.187Z,62.70
2022-09-24T11:58:45.277Z,62.90
2022-09-24T11:59:45.153Z,63.30
2022-09-24T12:00:45.142Z,63.20
2022-09-24T12:01:45.181Z,63.50
2022-09-24T12:02:45.187Z,63.20
2022-09-24T12:03:45.134Z,63.64
2022-09-24T12:04:45.105Z,62.43
2022-09-24T12:05:45.099Z,62.93
2022-09-24T12:06:45.077Z,61.79
2022-09-24T12:07:45.090Z,61.79
2022-09-24T12:08:45.055Z,63.30
2022-09-24T12:09:45.047Z,63.40
2022-09-24T12:10:45.037Z,63.13
2022-09-24T12:11:45.024Z,64.14
2022-09-24T12:12:45.026Z,63.73
2022-09-24T12:13:45.012Z,63.43
2022-09-24T12:14:45.104Z,62.73
2022-09-24T12:15:45.023Z,60.88
2022-09-24T12:16:44.970Z,60.48
2022-09-24T12:17:44.973Z,60.68
2022-09-24T12:18:44.948Z,60.31
2022-09-24T12:19:44.941Z,60.78
2022-09-24T12:20:44.928Z,61.52
2022-09-24T12:21:44.918Z,62.12
2022-09-24T12:22:44.925Z,62.52
2022-09-24T12:23:44.897Z,62.73
2022-09-24T12:24:44.923Z,62.22
2022-09-24T12:25:44.875Z,62.22
2022-09-24T12:26:44.860Z,62.73
2022-09-24T12:27:44.901Z,63.03
2022-09-24T12:28:44.840Z,62.22
2022-09-24T12:29:44.833Z,62.73
2022-09-24T12:30:44.925Z,62.52
2022-09-24T12:31:44.845Z,62.49
2022-09-24T12:32:44.806Z,62.49
2022-09-24T12:33:44.788Z,62.09
2022-09-24T12:34:44.783Z,61.99
2022-09-24T12:35:44.767Z,60.25
2022-09-24T12:36:44.754Z,60.38
2022-09-24T12:37:44.758Z,60.78
2022-09-24T12:38:44.733Z,61.29
2022-09-24T12:39:44.725Z,62.80
2022-09-24T12:40:44.758Z,61.99
2022-09-24T12:41:44.731Z,61.99
2022-09-24T12:42:44.699Z,62.40
2022-09-24T12:43:44.681Z,62.09
2022-09-24T12:44:44.671Z,61.96
2022-09-24T12:45:44.708Z,62.57
2022-09-24T12:46:44.785Z,63.50
2022-09-24T12:47:44.646Z,63.20
2022-09-24T12:48:44.636Z,62.29
2022-09-24T12:49:44.617Z,62.09
2022-09-24T12:50:44.604Z,62.66
2022-09-24T12:51:44.613Z,61.86
2022-09-24T12:52:44.598Z,61.89